createdAt,value
2022-09-14T00:01:25.229Z,5.75
2022-09-14T00:03:55.245Z,5.63
2022-09-14T00:06:22.901Z,5.43
2022-09-14T00:08:52.483Z,5.88
2022-09-14T00:11:19.928Z,5.72
2022-09-14T00:13:47.506Z,5.43
2022-09-14T00:16:17.811Z,5.50
2022-09-14T00:18:45.265Z,5.28
2022-09-14T00:21:13.042Z,5.45
2022-09-14T00:23:42.198Z,6.03
2022-09-14T00:26:16.124Z,5.38
2022-09-14T00:28:48.860Z,5.55
2022-09-14T00:31:17.027Z,5.53
2022-09-14T00:33:45.081Z,5.95
2022-09-14T00:36:16.073Z,6.28
2022-09-14T00:38:43.044Z,6.13
2022-09-14T00:41:13.698Z,6.07
2022-09-14T00:43:57.096Z,5.50
2022-09-14T00:46:25.591Z,5.30
2022-09-14T00:48:52.864Z,6.28
2022-09-14T00:51:21.682Z,6.20
2022-09-14T00:53:48.851Z,5.82
2022-09-14T00:56:15.994Z,6.15
2022-09-14T00:58:45.408Z,5.88
2022-09-14T01:01:12.491Z,5.65
2022-09-14T01:03:39.503Z,6.47
2022-09-14T01:06:35.463Z,5.90
2022-09-14T01:09:20.715Z,5.90
2022-09-14T01:12:09.535Z,6.40
2022-09-14T01:14:48.388Z,6.13
2022-09-14T01:17:17.704Z,6.72
2022-09-14T01:20:08.978Z,6.97
2022-09-14T01:22:51.213Z,6.95
2022-09-14T01:25:45.824Z,6.60
2022-09-14T01:28:38.515Z,6.60
2022-09-14T01:31:13.642Z,6.55
2022-09-14T01:33:53.838Z,6.45
2022-09-14T01:36:21.925Z,6.47
2022-09-14T01:38:51.931Z,6.22
2022-09-14T01:41:23.140Z,6.57
2022-09-14T01:43:54.224Z,7.63
2022-09-14T01:46:26.008Z,6.55
2022-09-14T01:52:11.319Z,6.43
2022-09-14T01:55:01.008Z,6.90
2022-09-14T01:57:42.590Z,5.80
2022-09-14T02:00:12.645Z,6.63
2022-09-14T02:03:06.595Z,6.32
2022-09-14T02:05:37.058Z,6.03
2022-09-14T02:08:04.297Z,6.35
2022-09-14T02:10:31.733Z,5.75
2022-09-14T02:12:58.684Z,6.07
2022-09-14T02:15:28.234Z,5.80
2022-09-14T02:17:55.392Z,6.53
2022-09-14T02:20:45.932Z,6.50
2022-09-14T02:23:13.225Z,6.18
2022-09-14T02:25:43.338Z,6.38
2022-09-14T02:28:10.156Z,6.03
2022-09-14T02:30:52.457Z,6.13
2022-09-14T02:33:35.385Z,6.85
2022-09-14T02:36:10.760Z,6.25
2022-09-14T02:38:59.465Z,6.00
2022-09-14T02:42:04.614Z,6.47
2022-09-14T02:44:39.911Z,6.35
2022-09-14T02:47:26.157Z,6.18
2022-09-14T02:50:20.134Z,6.53
2022-09-14T02:53:01.487Z,6.38
2022-09-14T02:55:34.898Z,5.93
2022-09-14T02:58:11.452Z,6.30
2022-09-14T03:00:41.717Z,6.32
2022-09-14T03:03:11.670Z,6.60
2022-09-14T03:05:38.714Z,6.88
2022-09-14T03:08:06.400Z,6.90
2022-09-14T03:10:33.847Z,6.38
2022-09-14T03:13:00.976Z,7.38
2022-09-14T03:15:28.413Z,7.68
2022-09-14T03:17:55.575Z,7.15
2022-09-14T03:20:25.275Z,7.20
2022-09-14T03:22:52.499Z,7.55
2022-09-14T03:25:20.167Z,7.75
2022-09-14T03:27:51.495Z,6.88
2022-09-14T03:30:19.474Z,7.18
2022-09-14T03:32:46.728Z,7.20
2022-09-14T03:35:14.569Z,6.88
2022-09-14T03:37:42.879Z,7.95
2022-09-14T03:40:11.698Z,7.13
2022-09-14T03:42:46.240Z,8.07
2022-09-14T03:45:14.402Z,7.65
2022-09-14T03:47:42.022Z,7.65
2022-09-14T03:50:11.279Z,7.53
2022-09-14T03:52:38.247Z,7.45
2022-09-14T03:55:06.976Z,7.63
2022-09-14T03:57:33.798Z,7.85
2022-09-14T04:00:00.552Z,7.70
2022-09-14T04:02:29.351Z,7.30
2022-09-14T04:04:56.302Z,8.60
2022-09-14T04:07:23.081Z,8.05
2022-09-14T04:09:50.062Z,7.85
2022-09-14T04:12:16.810Z,7.90
2022-09-14T04:14:43.581Z,8.38
2022-09-14T04:17:10.417Z,8.07
2022-09-14T04:19:41.584Z,8.25
2022-09-14T04:22:09.020Z,8.65
2022-09-14T04:24:36.075Z,8.25
2022-09-14T04:27:02.973Z,7.25
2022-09-14T04:29:30.725Z,7.85
2022-09-14T04:31:58.091Z,7.60
2022-09-14T04:34:25.624Z,7.03
2022-09-14T04:36:52.472Z,6.88
2022-09-14T04:39:19.645Z,6.82
2022-09-14T04:41:46.476Z,7.53
2022-09-14T04:44:13.340Z,7.70
2022-09-14T04:46:46.278Z,7.90
2022-09-14T04:49:15.293Z,7.63
2022-09-14T04:51:42.241Z,7.53
2022-09-14T04:54:13.733Z,8.02
2022-09-14T04:56:40.998Z,7.80
2022-09-14T04:59:08.118Z,7.93
2022-09-14T05:01:43.588Z,7.90
2022-09-14T05:04:11.615Z,8.55
2022-09-14T05:06:40.658Z,8.38
2022-09-14T05:09:13.503Z,7.97
2022-09-14T05:11:41.183Z,7.82
2022-09-14T05:14:09.674Z,8.00
2022-09-14T05:16:38.496Z,8.25
2022-09-14T05:19:08.122Z,8.57
2022-09-14T05:21:37.434Z,9.05
2022-09-14T05:24:14.996Z,8.88
2022-09-14T05:26:43.444Z,8.18
2022-09-14T05:29:15.384Z,8.52
2022-09-14T05:31:42.564Z,8.52
2022-09-14T05:34:10.653Z,8.52
2022-09-14T05:36:38.826Z,8.15
2022-09-14T05:39:07.262Z,8.43
2022-09-14T05:41:34.018Z,8.85
2022-09-14T05:44:00.877Z,8.27
2022-09-14T05:46:27.911Z,8.35
2022-09-14T05:48:54.737Z,8.23
2022-09-14T05:51:25.154Z,8.23
2022-09-14T05:53:53.803Z,7.68
2022-09-14T05:56:22.163Z,7.55
2022-09-14T05:58:49.616Z,7.80
2022-09-14T06:01:19.772Z,7.93
2022-09-14T06:03:48.267Z,7.47
2022-09-14T06:06:18.076Z,7.57
2022-09-14T06:08:45.545Z,8.57
2022-09-14T06:11:16.369Z,7.53
2022-09-14T06:13:43.909Z,8.68
2022-09-14T06:16:21.029Z,7.68
2022-09-14T06:18:48.743Z,8.02
2022-09-14T06:21:19.271Z,7.82
2022-09-14T06:23:47.121Z,8.07
2022-09-14T06:26:18.380Z,7.75
2022-09-14T06:28:45.141Z,8.32
2022-09-14T06:31:13.714Z,8.52
2022-09-14T06:33:47.637Z,7.82
2022-09-14T06:36:17.942Z,7.55
2022-09-14T06:38:44.709Z,7.68
2022-09-14T06:41:14.288Z,7.40
2022-09-14T06:43:42.351Z,7.95
2022-09-14T06:46:14.746Z,6.55
2022-09-14T06:49:31.367Z,7.53
2022-09-14T06:52:02.437Z,7.00
2022-09-14T06:54:29.423Z,6.50
2022-09-14T06:56:56.221Z,6.80
2022-09-14T06:59:22.975Z,6.85
2022-09-14T07:01:49.866Z,6.75
2022-09-14T07:04:17.017Z,7.03
2022-09-14T07:06:46.197Z,7.05
2022-09-14T07:09:13.265Z,6.43
2022-09-14T07:11:40.205Z,6.20
2022-09-14T07:14:07.079Z,5.90
2022-09-14T07:16:37.869Z,6.90
2022-09-14T07:19:10.743Z,6.25
2022-09-14T07:21:37.701Z,6.15
2022-09-14T07:24:04.915Z,6.72
2022-09-14T07:26:42.384Z,6.78
2022-09-14T07:29:13.612Z,6.13
2022-09-14T07:31:49.256Z,5.60
2022-09-14T07:34:16.681Z,6.15
2022-09-14T07:36:44.046Z,5.88
2022-09-14T07:39:13.542Z,5.75
2022-09-14T07:41:40.781Z,5.97
2022-09-14T07:44:08.973Z,5.20
2022-09-14T07:46:40.991Z,5.55
2022-09-14T07:49:09.191Z,4.90
2022-09-14T07:51:37.134Z,5.38
2022-09-14T07:54:05.463Z,6.13
2022-09-14T07:56:32.717Z,5.00
2022-09-14T07:59:23.764Z,4.75
2022-09-14T08:01:46.924Z,4.45
2022-09-14T08:04:13.819Z,4.90
2022-09-14T08:06:40.831Z,4.15
2022-09-14T08:09:10.987Z,4.75
2022-09-14T08:11:38.593Z,4.78
2022-09-14T08:14:11.898Z,4.97
2022-09-14T08:16:39.182Z,4.78
2022-09-14T08:19:12.255Z,5.28
2022-09-14T08:21:41.711Z,4.68
2022-09-14T08:24:13.972Z,3.42
2022-09-14T08:26:40.867Z,4.22
2022-09-14T08:29:08.156Z,4.18
2022-09-14T08:31:39.274Z,4.18
2022-09-14T08:34:06.904Z,4.13
2022-09-14T08:36:38.656Z,3.95
2022-09-14T08:41:38.472Z,4.63
2022-09-14T08:44:08.243Z,3.72
2022-09-14T08:46:44.253Z,4.03
2022-09-14T08:49:20.488Z,3.97
2022-09-14T08:51:47.385Z,4.03
2022-09-14T08:54:14.151Z,3.92
2022-09-14T08:56:45.499Z,4.05
2022-09-14T08:59:24.633Z,4.15
2022-09-14T09:02:28.179Z,4.50
2022-09-14T09:05:14.612Z,4.13
2022-09-14T09:07:54.069Z,4.40
2022-09-14T09:10:21.221Z,4.53
2022-09-14T09:12:57.688Z,4.05
2022-09-14T09:15:52.098Z,3.58
2022-09-14T09:18:37.132Z,3.88
2022-09-14T09:21:15.227Z,2.75
2022-09-14T09:23:42.873Z,3.13
2022-09-14T09:26:09.633Z,3.65
2022-09-14T09:28:46.027Z,3.40
2022-09-14T09:31:14.973Z,3.33
2022-09-14T09:33:42.377Z,3.28
2022-09-14T09:36:13.424Z,3.38
2022-09-14T09:38:40.440Z,3.45
2022-09-14T09:41:19.183Z,3.35
2022-09-14T09:44:09.405Z,3.25
2022-09-14T09:46:48.675Z,3.20
2022-09-14T09:49:31.045Z,3.20
2022-09-14T09:52:08.888Z,3.80
2022-09-14T09:54:37.840Z,3.83
2022-09-14T09:57:18.260Z,3.58
2022-09-14T09:59:46.725Z,4.15
2022-09-14T10:02:31.276Z,3.35
2022-09-14T10:05:01.194Z,3.63
2022-09-14T10:07:30.164Z,3.95
2022-09-14T10:10:12.661Z,3.40
2022-09-14T10:12:45.543Z,4.07
2022-09-14T10:15:28.736Z,4.30
2022-09-14T10:18:12.418Z,4.13
2022-09-14T10:20:52.904Z,4.35
2022-09-14T10:23:19.757Z,4.75
2022-09-14T10:25:48.421Z,3.92
2022-09-14T10:28:26.991Z,4.20
2022-09-14T10:31:02.985Z,4.57
2022-09-14T10:33:30.304Z,3.72
2022-09-14T10:36:01.547Z,4.20
2022-09-14T10:38:52.877Z,4.20
2022-09-14T10:41:22.622Z,4.20
2022-09-14T10:44:27.848Z,4.80
2022-09-14T10:47:34.027Z,4.30
2022-09-14T10:50:28.360Z,4.47
2022-09-14T10:53:10.253Z,3.95
2022-09-14T10:58:31.597Z,3.92
2022-09-14T11:01:04.465Z,3.95
2022-09-14T11:04:05.353Z,3.88
2022-09-14T11:06:38.187Z,3.70
2022-09-14T11:09:18.972Z,4.07
2022-09-14T11:12:00.095Z,3.53
2022-09-14T11:14:52.739Z,3.60
2022-09-14T11:17:42.363Z,3.92
2022-09-14T11:20:15.605Z,3.40
2022-09-14T11:23:02.560Z,3.33
2022-09-14T11:25:43.075Z,3.28
2022-09-14T11:28:25.376Z,3.50
2022-09-14T11:31:01.834Z,3.72
2022-09-14T11:33:58.805Z,3.22
2022-09-14T11:36:30.474Z,3.33
2022-09-14T11:39:07.217Z,3.70
2022-09-14T11:41:41.518Z,3.47
2022-09-14T11:44:26.634Z,3.20
2022-09-14T11:47:09.688Z,3.40
2022-09-14T11:50:00.990Z,3.10
2022-09-14T11:52:30.600Z,3.20
2022-09-14T11:54:58.670Z,3.08
2022-09-14T11:57:28.759Z,2.80
2022-09-14T11:59:57.809Z,3.45
2022-09-14T12:02:30.413Z,2.72
2022-09-14T12:05:17.664Z,2.65
2022-09-14T12:07:47.107Z,2.78
2022-09-14T12:10:13.835Z,2.90
2022-09-14T12:12:57.356Z,2.72
2022-09-14T12:15:27.094Z,2.50
2022-09-14T12:18:06.043Z,2.72
2022-09-14T12:20:41.932Z,2.45
2022-09-14T12:23:27.085Z,2.58
2022-09-14T12:26:04.822Z,2.63
2022-09-14T12:28:48.712Z,2.95
2022-09-14T12:31:47.434Z,2.50
2022-09-14T12:34:33.142Z,2.75
2022-09-14T12:37:21.743Z,2.88
2022-09-14T12:40:25.903Z,2.10
2022-09-14T12:42:52.644Z,2.60
2022-09-14T12:46:00.881Z,2.70
2022-09-14T12:48:45.940Z,2.75
2022-09-14T12:51:33.981Z,2.33
2022-09-14T12:54:00.792Z,2.15
2022-09-14T12:56:49.253Z,2.30
2022-09-14T12:59:27.319Z,2.40
2022-09-14T13:02:17.255Z,2.63
2022-09-14T13:04:45.780Z,2.55
2022-09-14T13:07:17.967Z,2.15
2022-09-14T13:09:51.420Z,2.75
2022-09-14T13:12:27.804Z,2.20
2022-09-14T13:15:00.479Z,2.40
2022-09-14T13:17:27.194Z,2.63
2022-09-14T13:19:58.941Z,2.90
2022-09-14T13:22:29.423Z,2.63
2022-09-14T13:24:58.954Z,2.50
2022-09-14T13:27:34.828Z,2.80
2022-09-14T13:30:20.431Z,2.70
2022-09-14T13:32:51.391Z,2.60
2022-09-14T13:35:28.824Z,2.78
2022-09-14T13:37:58.174Z,3.13
2022-09-14T13:40:30.704Z,3.10
2022-09-14T13:42:59.288Z,2.60
2022-09-14T13:45:26.457Z,2.40
2022-09-14T13:47:54.303Z,2.60
2022-09-14T13:50:25.322Z,2.55
2022-09-14T13:53:08.318Z,3.35
2022-09-14T13:55:35.003Z,2.95
2022-09-14T13:58:14.715Z,3.10
2022-09-14T14:01:03.982Z,2.35
2022-09-14T14:03:41.568Z,2.50
2022-09-14T14:06:26.696Z,2.33
2022-09-14T14:09:06.452Z,2.72
2022-09-14T14:11:37.820Z,2.28
2022-09-14T14:16:38.748Z,2.75
2022-09-14T14:19:05.555Z,2.65
2022-09-14T14:21:33.753Z,2.95
2022-09-14T14:24:27.873Z,3.45
2022-09-14T14:26:57.252Z,2.40
2022-09-14T14:29:25.716Z,2.60
2022-09-14T14:31:55.810Z,2.70
2022-09-14T14:34:29.608Z,3.25
2022-09-14T14:36:56.580Z,2.63
2022-09-14T14:39:25.465Z,2.80
2022-09-14T14:41:52.678Z,2.80
2022-09-14T14:44:25.344Z,3.15
2022-09-14T14:46:52.130Z,2.58
2022-09-14T14:49:20.703Z,2.78
2022-09-14T14:51:48.273Z,2.50
2022-09-14T14:54:17.870Z,2.60
2022-09-14T14:56:46.637Z,2.63
2022-09-14T14:59:19.485Z,2.75
2022-09-14T15:01:50.615Z,2.80
2022-09-14T15:04:17.658Z,2.60
2022-09-14T15:06:46.269Z,2.70
2022-09-14T15:09:27.763Z,2.58
2022-09-14T15:14:26.700Z,2.60
2022-09-14T15:16:57.934Z,2.47
2022-09-14T15:19:25.806Z,2.35
2022-09-14T15:21:55.210Z,2.50
2022-09-14T15:24:24.130Z,2.40
2022-09-14T15:26:50.888Z,3.00
2022-09-14T15:29:19.965Z,2.67
2022-09-14T15:31:46.868Z,2.92
2022-09-14T15:34:13.625Z,2.75
2022-09-14T15:36:52.283Z,2.97
2022-09-14T15:39:26.296Z,2.80
2022-09-14T15:41:53.676Z,2.85
2022-09-14T15:44:20.437Z,3.20
2022-09-14T15:46:47.954Z,2.75
2022-09-14T15:49:20.468Z,2.90
2022-09-14T15:51:50.051Z,3.10
2022-09-14T15:54:23.121Z,3.72
2022-09-14T15:56:51.926Z,3.00
2022-09-14T15:59:19.941Z,2.88
2022-09-14T16:01:46.929Z,3.38
2022-09-14T16:04:14.094Z,2.88
2022-09-14T16:06:41.369Z,3.38
2022-09-14T16:09:10.224Z,3.03
2022-09-14T16:11:37.941Z,2.88
2022-09-14T16:14:06.105Z,3.42
2022-09-14T16:16:34.631Z,3.47
2022-09-14T16:19:13.407Z,3.28
2022-09-14T16:21:41.577Z,3.70
2022-09-14T16:24:14.793Z,3.30
2022-09-14T16:26:42.456Z,3.42
2022-09-14T16:29:11.843Z,4.00
2022-09-14T16:31:40.379Z,3.95
2022-09-14T16:34:17.204Z,3.72
2022-09-14T16:36:44.534Z,4.00
2022-09-14T16:39:13.791Z,3.30
2022-09-14T16:41:42.224Z,3.97
2022-09-14T16:44:13.580Z,4.05
2022-09-14T16:46:40.603Z,3.25
2022-09-14T16:49:07.437Z,3.60
2022-09-14T16:51:34.324Z,3.90
2022-09-14T16:54:01.558Z,3.35
2022-09-14T16:56:35.043Z,3.90
2022-09-14T16:59:02.616Z,3.45
2022-09-14T17:01:31.971Z,4.25
2022-09-14T17:04:09.909Z,3.45
2022-09-14T17:06:38.722Z,3.45
2022-09-14T17:09:10.012Z,3.80
2022-09-14T17:11:38.335Z,4.40
2022-09-14T17:14:06.122Z,4.13
2022-09-14T17:16:33.016Z,3.85
2022-09-14T17:19:02.692Z,3.72
2022-09-14T17:21:38.227Z,4.03
2022-09-14T17:24:06.496Z,4.75
2022-09-14T17:26:34.241Z,3.80
2022-09-14T17:29:02.072Z,4.40
2022-09-14T17:31:34.764Z,3.88
2022-09-14T17:34:03.310Z,3.70
2022-09-14T17:36:30.807Z,4.03
2022-09-14T17:38:59.781Z,4.20
2022-09-14T17:41:28.167Z,4.20
2022-09-14T17:44:00.461Z,3.95
2022-09-14T17:46:27.830Z,4.28
2022-09-14T17:48:56.467Z,4.25
2022-09-14T17:51:26.093Z,4.30
2022-09-14T17:53:55.560Z,3.90
2022-09-14T17:56:25.074Z,4.50
2022-09-14T17:58:59.337Z,4.47
2022-09-14T18:01:26.897Z,4.95
2022-09-14T18:03:57.046Z,4.45
2022-09-14T18:06:26.853Z,4.72
2022-09-14T18:08:55.843Z,4.82
2022-09-14T18:11:23.061Z,4.75
2022-09-14T18:13:50.756Z,5.03
2022-09-14T18:16:19.835Z,4.70
2022-09-14T18:18:47.513Z,4.38
2022-09-14T18:21:15.465Z,4.53
2022-09-14T18:23:42.648Z,4.82
2022-09-14T18:26:09.983Z,5.10
2022-09-14T18:28:37.032Z,4.78
2022-09-14T18:31:06.601Z,5.00
2022-09-14T18:33:33.746Z,4.70
2022-09-14T18:36:00.943Z,4.85
2022-09-14T18:38:28.920Z,4.28
2022-09-14T18:41:02.039Z,3.92
2022-09-14T18:43:28.839Z,4.15
2022-09-14T18:45:55.603Z,4.70
2022-09-14T18:48:22.339Z,5.25
2022-09-14T18:50:49.072Z,4.10
2022-09-14T18:53:16.051Z,4.43
2022-09-14T18:55:43.405Z,3.65
2022-09-14T18:58:10.139Z,3.38
2022-09-14T19:00:37.459Z,3.58
2022-09-14T19:03:04.667Z,3.45
2022-09-14T19:05:31.899Z,3.65
2022-09-14T19:07:58.729Z,3.88
2022-09-14T19:10:26.916Z,3.67
2022-09-14T19:12:53.646Z,3.30
2022-09-14T19:15:20.445Z,3.72
2022-09-14T19:17:47.344Z,3.20
2022-09-14T19:20:14.214Z,3.33
2022-09-14T19:22:40.939Z,3.40
2022-09-14T19:25:08.095Z,3.53
2022-09-14T19:27:34.825Z,3.70
2022-09-14T19:30:02.004Z,3.67
2022-09-14T19:32:36.967Z,3.40
2022-09-14T19:35:04.517Z,3.13
2022-09-14T19:37:32.158Z,3.20
2022-09-14T19:39:58.993Z,2.95
2022-09-14T19:42:26.025Z,3.33
2022-09-14T19:44:52.784Z,3.67
2022-09-14T19:47:19.493Z,3.33
2022-09-14T19:49:46.285Z,2.88
2022-09-14T19:52:13.037Z,4.95
2022-09-14T19:54:39.777Z,3.28
2022-09-14T19:57:06.946Z,3.58
2022-09-14T19:59:33.681Z,3.58
2022-09-14T20:02:00.465Z,3.17
2022-09-14T20:04:27.363Z,3.40
2022-09-14T20:06:56.387Z,3.55
2022-09-14T20:09:24.040Z,3.75
2022-09-14T20:11:52.525Z,3.40
2022-09-14T20:14:22.599Z,4.18
2022-09-14T20:16:53.280Z,3.60
2022-09-14T20:19:22.664Z,3.85
2022-09-14T20:21:51.170Z,3.95
2022-09-14T20:24:25.728Z,3.58
2022-09-14T20:26:59.403Z,3.67
2022-09-14T20:29:30.127Z,4.20
2022-09-14T20:31:58.091Z,3.60
2022-09-14T20:34:25.365Z,4.07
2022-09-14T20:36:53.378Z,4.05
2022-09-14T20:39:22.246Z,4.38
2022-09-14T20:41:49.477Z,4.90
2022-09-14T20:44:21.859Z,4.40
2022-09-14T20:46:49.864Z,4.15
2022-09-14T20:49:20.929Z,4.35
2022-09-14T20:51:47.770Z,4.80
2022-09-14T20:54:16.905Z,3.72
2022-09-14T20:56:46.039Z,4.28
2022-09-14T20:59:15.718Z,5.00
2022-09-14T21:01:44.594Z,4.63
2022-09-14T21:04:14.417Z,4.13
2022-09-14T21:06:46.624Z,4.22
2022-09-14T21:09:14.810Z,4.45
2022-09-14T21:11:42.202Z,5.00
2022-09-14T21:14:09.143Z,4.30
2022-09-14T21:16:38.136Z,5.00
2022-09-14T21:19:17.046Z,5.00
2022-09-14T21:21:43.913Z,4.93
2022-09-14T21:24:13.352Z,4.60
2022-09-14T21:26:42.798Z,4.93
2022-09-14T21:29:13.154Z,4.30
2022-09-14T21:31:40.540Z,4.57
2022-09-14T21:34:10.192Z,5.30
2022-09-14T21:36:50.807Z,4.85
2022-09-14T21:39:21.609Z,4.53
2022-09-14T21:41:51.465Z,4.83
2022-09-14T21:44:21.336Z,4.88
2022-09-14T21:46:48.141Z,5.45
2022-09-14T21:49:17.495Z,5.22
2022-09-14T21:51:44.501Z,5.20
2022-09-14T21:54:13.011Z,5.00
2022-09-14T21:56:43.173Z,5.22
2022-09-14T21:59:13.971Z,5.18
2022-09-14T22:01:41.769Z,4.87
2022-09-14T22:04:13.661Z,5.60
2022-09-14T22:06:40.608Z,5.28
2022-09-14T22:09:07.522Z,5.45
2022-09-14T22:11:36.346Z,4.82
2022-09-14T22:14:06.644Z,5.38
2022-09-14T22:16:36.104Z,4.88
2022-09-14T22:19:11.347Z,5.35
2022-09-14T22:21:39.136Z,5.82
2022-09-14T22:24:09.835Z,5.30
2022-09-14T22:26:39.597Z,5.05
2022-09-14T22:29:08.887Z,5.68
2022-09-14T22:31:37.732Z,4.93
2022-09-14T22:34:05.243Z,4.80
2022-09-14T22:36:32.052Z,5.30
2022-09-14T22:39:00.431Z,4.88
2022-09-14T22:41:28.419Z,5.35
2022-09-14T22:43:56.058Z,5.38
2022-09-14T22:46:24.228Z,4.97
2022-09-14T22:48:52.152Z,5.43
2022-09-14T22:51:26.701Z,5.88
2022-09-14T22:53:53.473Z,4.53
2022-09-14T22:56:23.699Z,5.13
2022-09-14T22:58:51.208Z,5.38
2022-09-14T23:01:21.538Z,4.97
2022-09-14T23:03:48.589Z,5.10
2022-09-14T23:06:15.612Z,6.28
2022-09-14T23:08:42.929Z,5.55
2022-09-14T23:11:12.223Z,5.10
2022-09-14T23:13:41.798Z,4.75
2022-09-14T23:16:14.889Z,5.88
2022-09-14T23:18:42.289Z,5.40
2022-09-14T23:21:09.434Z,7.07
2022-09-14T23:23:38.215Z,7.63
2022-09-14T23:26:08.296Z,7.07
2022-09-14T23:28:35.787Z,5.80
2022-09-14T23:31:03.228Z,5.97
2022-09-14T23:33:31.018Z,6.57
2022-09-14T23:35:57.960Z,7.47
2022-09-14T23:38:25.227Z,8.20
2022-09-14T23:40:52.247Z,8.60
2022-09-14T23:43:19.567Z,8.50
2022-09-14T23:45:47.534Z,8.88
2022-09-14T23:48:14.874Z,8.20
2022-09-14T23:50:41.639Z,7.43
2022-09-14T23:53:09.086Z,7.70
2022-09-14T23:55:35.839Z,6.85
2022-09-14T23:58:03.169Z,8.02
